sensor_id;sensor_type;location;lat;lon;timestamp;P1;durP1;ratioP1;P2;durP2;ratioP2
44248;SDS011;29923;48.718;9.272;2022-07-29T00:01:20;8.52;;;4.93;;
44248;SDS011;29923;48.718;9.272;2022-07-29T00:03:45;8.13;;;4.72;;
44248;SDS011;29923;48.718;9.272;2022-07-29T00:06:11;8.88;;;4.90;;
44248;SDS011;29923;48.718;9.272;2022-07-29T00:08:36;6.70;;;4.78;;
44248;SDS011;29923;48.718;9.272;2022-07-29T00:11:01;8.27;;;5.28;;
44248;SDS011;29923;48.718;9.272;2022-07-29T00:13:27;7.93;;;4.80;;
44248;SDS011;29923;48.718;9.272;2022-07-29T00:15:52;7.03;;;4.80;;
44248;SDS011;29923;48.718;9.272;2022-07-29T00:18:18;6.68;;;4.72;;
44248;SDS011;29923;48.718;9.272;2022-07-29T00:20:43;7.72;;;4.22;;
44248;SDS011;29923;48.718;9.272;2022-07-29T00:23:08;5.80;;;4.22;;
44248;SDS011;29923;48.718;9.272;2022-07-29T00:25:34;6.20;;;3.60;;
44248;SDS011;29923;48.718;9.272;2022-07-29T00:27:59;7.28;;;4.07;;
44248;SDS011;29923;48.718;9.272;2022-07-29T00:30:24;9.00;;;5.03;;
44248;SDS011;29923;48.718;9.272;2022-07-29T00:32:50;8.38;;;4.55;;
44248;SDS011;29923;48.718;9.272;2022-07-29T00:35:15;9.07;;;4.72;;
44248;SDS011;29923;48.718;9.272;2022-07-29T00:40:24;5.28;;;4.10;;
44248;SDS011;29923;48.718;9.272;2022-07-29T00:42:50;6.10;;;4.88;;
44248;SDS011;29923;48.718;9.272;2022-07-29T00:45:16;7.78;;;4.90;;
44248;SDS011;29923;48.718;9.272;2022-07-29T00:47:42;6.57;;;4.70;;
44248;SDS011;29923;48.718;9.272;2022-07-29T00:50:08;7.40;;;4.80;;
44248;SDS011;29923;48.718;9.272;2022-07-29T00:52:35;8.77;;;5.50;;
44248;SDS011;29923;48.718;9.272;2022-07-29T00:55:03;7.93;;;5.38;;
44248;SDS011;29923;48.718;9.272;2022-07-29T00:57:29;9.00;;;4.57;;
44248;SDS011;29923;48.718;9.272;2022-07-29T00:59:54;8.65;;;5.20;;
44248;SDS011;29923;48.718;9.272;2022-07-29T01:02:20;6.18;;;4.45;;
44248;SDS011;29923;48.718;9.272;2022-07-29T01:04:46;8.73;;;4.55;;
44248;SDS011;29923;48.718;9.272;2022-07-29T01:07:11;9.95;;;5.45;;
44248;SDS011;29923;48.718;9.272;2022-07-29T01:09:37;6.22;;;4.70;;
44248;SDS011;29923;48.718;9.272;2022-07-29T01:12:03;7.20;;;4.40;;
44248;SDS011;29923;48.718;9.272;2022-07-29T01:14:29;6.68;;;5.43;;
44248;SDS011;29923;48.718;9.272;2022-07-29T01:16:58;8.32;;;4.78;;
44248;SDS011;29923;48.718;9.272;2022-07-29T01:22:15;8.07;;;4.70;;
44248;SDS011;29923;48.718;9.272;2022-07-29T01:25:03;5.70;;;4.70;;
44248;SDS011;29923;48.718;9.272;2022-07-29T01:30:29;5.38;;;4.32;;
44248;SDS011;29923;48.718;9.272;2022-07-29T01:32:59;7.28;;;4.63;;
44248;SDS011;29923;48.718;9.272;2022-07-29T01:35:48;8.45;;;4.88;;
44248;SDS011;29923;48.718;9.272;2022-07-29T01:38:13;10.55;;;4.15;;
44248;SDS011;29923;48.718;9.272;2022-07-29T01:43:31;5.57;;;4.25;;
44248;SDS011;29923;48.718;9.272;2022-07-29T01:46:01;8.50;;;4.07;;
44248;SDS011;29923;48.718;9.272;2022-07-29T01:53:29;7.70;;;3.85;;
44248;SDS011;29923;48.718;9.272;2022-07-29T01:56:16;9.38;;;4.13;;
44248;SDS011;29923;48.718;9.272;2022-07-29T01:58:43;8.48;;;4.00;;
44248;SDS011;29923;48.718;9.272;2022-07-29T02:01:10;8.32;;;3.72;;
44248;SDS011;29923;48.718;9.272;2022-07-29T02:03:37;6.05;;;3.90;;
44248;SDS011;29923;48.718;9.272;2022-07-29T02:06:04;7.07;;;4.10;;
44248;SDS011;29923;48.718;9.272;2022-07-29T02:08:30;5.80;;;4.10;;
44248;SDS011;29923;48.718;9.272;2022-07-29T02:10:57;7.10;;;3.90;;
44248;SDS011;29923;48.718;9.272;2022-07-29T02:13:23;5.10;;;3.70;;
44248;SDS011;29923;48.718;9.272;2022-07-29T02:15:49;5.10;;;3.70;;
44248;SDS011;29923;48.718;9.272;2022-07-29T02:18:17;5.03;;;3.33;;
44248;SDS011;29923;48.718;9.272;2022-07-29T02:20:52;6.43;;;3.50;;
44248;SDS011;29923;48.718;9.272;2022-07-29T02:23:20;6.03;;;3.88;;
44248;SDS011;29923;48.718;9.272;2022-07-29T02:25:51;9.20;;;3.70;;
44248;SDS011;29923;48.718;9.272;2022-07-29T02:28:18;8.55;;;3.95;;
44248;SDS011;29923;48.718;9.272;2022-07-29T02:30:44;4.53;;;3.55;;
44248;SDS011;29923;48.718;9.272;2022-07-29T02:33:12;5.97;;;3.40;;
44248;SDS011;29923;48.718;9.272;2022-07-29T02:35:39;9.90;;;3.42;;
44248;SDS011;29923;48.718;9.272;2022-07-29T02:38:05;4.22;;;3.25;;
44248;SDS011;29923;48.718;9.272;2022-07-29T02:40:49;5.40;;;3.28;;
44248;SDS011;29923;48.718;9.272;2022-07-29T02:43:15;5.55;;;3.63;;
44248;SDS011;29923;48.718;9.272;2022-07-29T02:45:42;6.35;;;3.78;;
44248;SDS011;29923;48.718;9.272;2022-07-29T02:48:09;10.23;;;3.45;;
44248;SDS011;29923;48.718;9.272;2022-07-29T02:50:40;8.60;;;3.50;;
44248;SDS011;29923;48.718;9.272;2022-07-29T02:53:13;4.70;;;3.60;;
44248;SDS011;29923;48.718;9.272;2022-07-29T02:58:29;5.65;;;3.60;;
44248;SDS011;29923;48.718;9.272;2022-07-29T03:00:56;5.03;;;3.80;;
44248;SDS011;29923;48.718;9.272;2022-07-29T03:03:25;4.18;;;3.72;;
44248;SDS011;29923;48.718;9.272;2022-07-29T03:05:57;4.15;;;3.47;;
44248;SDS011;29923;48.718;9.272;2022-07-29T03:08:23;4.10;;;3.33;;
44248;SDS011;29923;48.718;9.272;2022-07-29T03:10:49;4.13;;;3.50;;
44248;SDS011;29923;48.718;9.272;2022-07-29T03:13:15;4.63;;;3.53;;
44248;SDS011;29923;48.718;9.272;2022-07-29T03:15:44;7.25;;;3.63;;
44248;SDS011;29923;48.718;9.272;2022-07-29T03:18:10;5.75;;;4.15;;
44248;SDS011;29923;48.718;9.272;2022-07-29T03:20:36;6.18;;;3.83;;
44248;SDS011;29923;48.718;9.272;2022-07-29T03:23:02;6.20;;;4.25;;
44248;SDS011;29923;48.718;9.272;2022-07-29T03:25:27;5.57;;;3.85;;
44248;SDS011;29923;48.718;9.272;2022-07-29T03:27:53;5.50;;;3.90;;
44248;SDS011;29923;48.718;9.272;2022-07-29T03:30:18;5.20;;;3.70;;
44248;SDS011;29923;48.718;9.272;2022-07-29T03:32:43;6.32;;;3.75;;
44248;SDS011;29923;48.718;9.272;2022-07-29T03:35:09;5.30;;;4.05;;
44248;SDS011;29923;48.718;9.272;2022-07-29T03:37:34;4.93;;;3.65;;
44248;SDS011;29923;48.718;9.272;2022-07-29T03:40:02;3.75;;;3.40;;
44248;SDS011;29923;48.718;9.272;2022-07-29T03:42:30;7.93;;;3.75;;
44248;SDS011;29923;48.718;9.272;2022-07-29T03:44:57;6.15;;;3.60;;
44248;SDS011;29923;48.718;9.272;2022-07-29T03:47:25;7.30;;;3.70;;
44248;SDS011;29923;48.718;9.272;2022-07-29T03:49:51;7.82;;;3.78;;
44248;SDS011;29923;48.718;9.272;2022-07-29T03:52:17;6.10;;;3.70;;
44248;SDS011;29923;48.718;9.272;2022-07-29T03:54:43;6.18;;;3.80;;
44248;SDS011;29923;48.718;9.272;2022-07-29T03:57:08;10.70;;;3.90;;
44248;SDS011;29923;48.718;9.272;2022-07-29T03:59:35;7.50;;;4.22;;
44248;SDS011;29923;48.718;9.272;2022-07-29T04:02:03;6.93;;;4.10;;
44248;SDS011;29923;48.718;9.272;2022-07-29T04:04:31;10.48;;;4.18;;
44248;SDS011;29923;48.718;9.272;2022-07-29T04:06:58;10.57;;;4.13;;
44248;SDS011;29923;48.718;9.272;2022-07-29T04:09:23;4.97;;;3.60;;
44248;SDS011;29923;48.718;9.272;2022-07-29T04:11:48;5.55;;;3.60;;
44248;SDS011;29923;48.718;9.272;2022-07-29T04:14:14;5.72;;;3.97;;
44248;SDS011;29923;48.718;9.272;2022-07-29T04:16:39;6.25;;;4.10;;
44248;SDS011;29923;48.718;9.272;2022-07-29T04:19:04;5.97;;;3.95;;
44248;SDS011;29923;48.718;9.272;2022-07-29T04:21:30;5.97;;;3.60;;
44248;SDS011;29923;48.718;9.272;2022-07-29T04:23:55;7.75;;;4.50;;
44248;SDS011;29923;48.718;9.272;2022-07-29T04:26:21;7.20;;;4.57;;
44248;SDS011;29923;48.718;9.272;2022-07-29T04:28:46;5.97;;;4.40;;
44248;SDS011;29923;48.718;9.272;2022-07-29T04:31:12;4.18;;;3.75;;
44248;SDS011;29923;48.718;9.272;2022-07-29T04:33:38;9.65;;;4.13;;
44248;SDS011;29923;48.718;9.272;2022-07-29T04:36:04;5.20;;;3.95;;
44248;SDS011;29923;48.718;9.272;2022-07-29T04:38:29;6.72;;;4.07;;
44248;SDS011;29923;48.718;9.272;2022-07-29T04:40:55;6.85;;;4.80;;
44248;SDS011;29923;48.718;9.272;2022-07-29T04:43:20;4.40;;;3.80;;
44248;SDS011;29923;48.718;9.272;2022-07-29T04:45:45;4.43;;;3.97;;
44248;SDS011;29923;48.718;9.272;2022-07-29T04:48:11;5.50;;;4.07;;
44248;SDS011;29923;48.718;9.272;2022-07-29T04:50:39;5.75;;;4.50;;
44248;SDS011;29923;48.718;9.272;2022-07-29T04:53:05;9.18;;;4.40;;
44248;SDS011;29923;48.718;9.272;2022-07-29T04:55:31;5.72;;;4.47;;
44248;SDS011;29923;48.718;9.272;2022-07-29T04:57:57;11.50;;;5.32;;
44248;SDS011;29923;48.718;9.272;2022-07-29T05:00:23;7.10;;;4.93;;
44248;SDS011;29923;48.718;9.272;2022-07-29T05:02:48;7.72;;;4.28;;
44248;SDS011;29923;48.718;9.272;2022-07-29T05:05:14;5.78;;;5.10;;
44248;SDS011;29923;48.718;9.272;2022-07-29T05:07:39;7.55;;;5.35;;
44248;SDS011;29923;48.718;9.272;2022-07-29T05:10:05;7.47;;;4.55;;
44248;SDS011;29923;48.718;9.272;2022-07-29T05:12:30;5.38;;;4.13;;
44248;SDS011;29923;48.718;9.272;2022-07-29T05:14:56;6.63;;;4.57;;
44248;SDS011;29923;48.718;9.272;2022-07-29T05:17:21;5.35;;;3.97;;
44248;SDS011;29923;48.718;9.272;2022-07-29T05:19:47;11.57;;;4.97;;
44248;SDS011;29923;48.718;9.272;2022-07-29T05:22:12;5.07;;;3.85;;
44248;SDS011;29923;48.718;9.272;2022-07-29T05:24:37;12.18;;;4.55;;
44248;SDS011;29923;48.718;9.272;2022-07-29T05:27:03;9.40;;;4.57;;
44248;SDS011;29923;48.718;9.272;2022-07-29T05:29:28;7.85;;;3.83;;
44248;SDS011;29923;48.718;9.272;2022-07-29T05:31:54;12.45;;;5.63;;
44248;SDS011;29923;48.718;9.272;2022-07-29T05:34:19;11.93;;;4.75;;
44248;SDS011;29923;48.718;9.272;2022-07-29T05:36:45;8.13;;;4.63;;
44248;SDS011;29923;48.718;9.272;2022-07-29T05:39:10;9.68;;;5.22;;
44248;SDS011;29923;48.718;9.272;2022-07-29T05:41:37;9.50;;;5.47;;
44248;SDS011;29923;48.718;9.272;2022-07-29T05:44:03;7.47;;;4.60;;
44248;SDS011;29923;48.718;9.272;2022-07-29T05:46:28;7.10;;;4.40;;
44248;SDS011;29923;48.718;9.272;2022-07-29T05:48:53;6.50;;;4.93;;
44248;SDS011;29923;48.718;9.272;2022-07-29T05:51:19;10.13;;;4.80;;
44248;SDS011;29923;48.718;9.272;2022-07-29T05:53:44;8.35;;;4.57;;
44248;SDS011;29923;48.718;9.272;2022-07-29T05:56:10;8.82;;;4.78;;
44248;SDS011;29923;48.718;9.272;2022-07-29T05:58:35;10.40;;;4.78;;
44248;SDS011;29923;48.718;9.272;2022-07-29T06:01:01;5.72;;;4.15;;
44248;SDS011;29923;48.718;9.272;2022-07-29T06:03:27;4.28;;;3.88;;
44248;SDS011;29923;48.718;9.272;2022-07-29T06:05:52;6.88;;;4.57;;
44248;SDS011;29923;48.718;9.272;2022-07-29T06:08:18;7.70;;;4.13;;
44248;SDS011;29923;48.718;9.272;2022-07-29T06:10:43;7.28;;;4.15;;
44248;SDS011;29923;48.718;9.272;2022-07-29T06:13:10;7.10;;;4.32;;
44248;SDS011;29923;48.718;9.272;2022-07-29T06:15:36;9.65;;;4.80;;
44248;SDS011;29923;48.718;9.272;2022-07-29T06:18:02;9.50;;;4.75;;
44248;SDS011;29923;48.718;9.272;2022-07-29T06:20:28;8.07;;;4.65;;
44248;SDS011;29923;48.718;9.272;2022-07-29T06:22:54;12.07;;;4.82;;
44248;SDS011;29923;48.718;9.272;2022-07-29T06:25:20;6.80;;;5.30;;
44248;SDS011;29923;48.718;9.272;2022-07-29T06:27:45;7.90;;;4.20;;
44248;SDS011;29923;48.718;9.272;2022-07-29T06:30:11;5.88;;;4.32;;
44248;SDS011;29923;48.718;9.272;2022-07-29T06:32:37;11.85;;;4.90;;
44248;SDS011;29923;48.718;9.272;2022-07-29T06:35:02;9.90;;;4.65;;
44248;SDS011;29923;48.718;9.272;2022-07-29T06:37:28;12.20;;;4.20;;
44248;SDS011;29923;48.718;9.272;2022-07-29T06:39:53;7.65;;;4.75;;
44248;SDS011;29923;48.718;9.272;2022-07-29T06:42:44;5.63;;;4.05;;
44248;SDS011;29923;48.718;9.272;2022-07-29T06:45:10;5.22;;;3.88;;
44248;SDS011;29923;48.718;9.272;2022-07-29T06:47:36;11.07;;;3.75;;
44248;SDS011;29923;48.718;9.272;2022-07-29T06:50:02;4.15;;;3.60;;
44248;SDS011;29923;48.718;9.272;2022-07-29T06:52:27;5.70;;;3.53;;
44248;SDS011;29923;48.718;9.272;2022-07-29T06:54:53;5.00;;;3.00;;
44248;SDS011;29923;48.718;9.272;2022-07-29T06:57:19;9.75;;;3.45;;
44248;SDS011;29923;48.718;9.272;2022-07-29T06:59:45;5.95;;;3.17;;
44248;SDS011;29923;48.718;9.272;2022-07-29T07:02:10;4.00;;;2.97;;
44248;SDS011;29923;48.718;9.272;2022-07-29T07:04:36;4.90;;;2.90;;
44248;SDS011;29923;48.718;9.272;2022-07-29T07:07:01;4.03;;;2.80;;
44248;SDS011;29923;48.718;9.272;2022-07-29T07:09:26;6.28;;;2.80;;
44248;SDS011;29923;48.718;9.272;2022-07-29T07:11:52;6.20;;;2.75;;
44248;SDS011;29923;48.718;9.272;2022-07-29T07:14:17;2.55;;;2.22;;
44248;SDS011;29923;48.718;9.272;2022-07-29T07:16:43;5.95;;;2.50;;
44248;SDS011;29923;48.718;9.272;2022-07-29T07:19:08;4.65;;;2.50;;
44248;SDS011;29923;48.718;9.272;2022-07-29T07:21:33;6.68;;;3.03;;
44248;SDS011;29923;48.718;9.272;2022-07-29T07:23:59;4.80;;;2.80;;
44248;SDS011;29923;48.718;9.272;2022-07-29T07:26:24;10.00;;;2.90;;
44248;SDS011;29923;48.718;9.272;2022-07-29T07:28:50;6.55;;;2.55;;
44248;SDS011;29923;48.718;9.272;2022-07-29T07:31:15;10.70;;;2.50;;
44248;SDS011;29923;48.718;9.272;2022-07-29T07:33:41;5.65;;;2.83;;
44248;SDS011;29923;48.718;9.272;2022-07-29T07:36:06;3.75;;;2.50;;
44248;SDS011;29923;48.718;9.272;2022-07-29T07:38:33;3.88;;;2.60;;
44248;SDS011;29923;48.718;9.272;2022-07-29T07:40:58;4.05;;;2.80;;
44248;SDS011;29923;48.718;9.272;2022-07-29T07:43:23;5.32;;;3.63;;
44248;SDS011;29923;48.718;9.272;2022-07-29T07:45:49;3.60;;;2.70;;
44248;SDS011;29923;48.718;9.272;2022-07-29T07:48:14;3.50;;;2.20;;
44248;SDS011;29923;48.718;9.272;2022-07-29T07:50:40;6.07;;;2.63;;
44248;SDS011;29923;48.718;9.272;2022-07-29T07:53:05;9.50;;;3.35;;
44248;SDS011;29923;48.718;9.272;2022-07-29T07:55:30;8.15;;;2.97;;
44248;SDS011;29923;48.718;9.272;2022-07-29T07:57:56;4.63;;;3.08;;
44248;SDS011;29923;48.718;9.272;2022-07-29T08:00:21;3.78;;;2.85;;
44248;SDS011;29923;48.718;9.272;2022-07-29T08:02:47;12.13;;;3.20;;
44248;SDS011;29923;48.718;9.272;2022-07-29T08:05:12;7.25;;;2.58;;
44248;SDS011;29923;48.718;9.272;2022-07-29T08:07:42;3.00;;;2.38;;
44248;SDS011;29923;48.718;9.272;2022-07-29T08:10:08;10.27;;;2.70;;
44248;SDS011;29923;48.718;9.272;2022-07-29T08:12:34;4.78;;;2.60;;
44248;SDS011;29923;48.718;9.272;2022-07-29T08:14:59;4.15;;;2.83;;
44248;SDS011;29923;48.718;9.272;2022-07-29T08:17:24;6.93;;;2.67;;
44248;SDS011;29923;48.718;9.272;2022-07-29T08:19:51;4.85;;;3.13;;
44248;SDS011;29923;48.718;9.272;2022-07-29T08:22:16;3.22;;;2.40;;
44248;SDS011;29923;48.718;9.272;2022-07-29T08:24:42;5.32;;;2.90;;
44248;SDS011;29923;48.718;9.272;2022-07-29T08:27:07;8.40;;;2.80;;
44248;SDS011;29923;48.718;9.272;2022-07-29T08:29:33;8.43;;;2.55;;
44248;SDS011;29923;48.718;9.272;2022-07-29T08:31:58;3.58;;;2.95;;
44248;SDS011;29923;48.718;9.272;2022-07-29T08:34:24;5.80;;;2.70;;
44248;SDS011;29923;48.718;9.272;2022-07-29T08:36:49;6.78;;;2.90;;
44248;SDS011;29923;48.718;9.272;2022-07-29T08:39:15;6.50;;;2.97;;
44248;SDS011;29923;48.718;9.272;2022-07-29T08:41:40;4.03;;;2.80;;
44248;SDS011;29923;48.718;9.272;2022-07-29T08:44:05;3.22;;;2.88;;
44248;SDS011;29923;48.718;9.272;2022-07-29T08:46:31;7.45;;;3.05;;
44248;SDS011;29923;48.718;9.272;2022-07-29T08:48:56;6.43;;;3.10;;
44248;SDS011;29923;48.718;9.272;2022-07-29T08:51:21;4.45;;;2.97;;
44248;SDS011;29923;48.718;9.272;2022-07-29T08:53:48;4.65;;;3.40;;
44248;SDS011;29923;48.718;9.272;2022-07-29T08:56:15;9.63;;;3.00;;
44248;SDS011;29923;48.718;9.272;2022-07-29T08:58:42;7.32;;;3.30;;
44248;SDS011;29923;48.718;9.272;2022-07-29T09:01:07;7.55;;;2.78;;
44248;SDS011;29923;48.718;9.272;2022-07-29T09:03:34;7.47;;;3.53;;
44248;SDS011;29923;48.718;9.272;2022-07-29T09:06:01;4.07;;;3.15;;
44248;SDS011;29923;48.718;9.272;2022-07-29T09:08:27;8.55;;;3.20;;
44248;SDS011;29923;48.718;9.272;2022-07-29T09:10:53;9.32;;;3.50;;
44248;SDS011;29923;48.718;9.272;2022-07-29T09:13:20;6.72;;;3.08;;
44248;SDS011;29923;48.718;9.272;2022-07-29T09:15:46;5.45;;;3.05;;
44248;SDS011;29923;48.718;9.272;2022-07-29T09:21:03;8.30;;;3.05;;
44248;SDS011;29923;48.718;9.272;2022-07-29T09:24:01;6.45;;;3.30;;
44248;SDS011;29923;48.718;9.272;2022-07-29T09:26:35;11.07;;;3.45;;
44248;SDS011;29923;48.718;9.272;2022-07-29T09:29:12;5.40;;;3.35;;
44248;SDS011;29923;48.718;9.272;2022-07-29T09:31:39;9.48;;;3.92;;
44248;SDS011;29923;48.718;9.272;2022-07-29T09:34:07;3.53;;;2.92;;
44248;SDS011;29923;48.718;9.272;2022-07-29T09:36:51;6.57;;;3.50;;
44248;SDS011;29923;48.718;9.272;2022-07-29T09:39:51;4.85;;;3.17;;
44248;SDS011;29923;48.718;9.272;2022-07-29T09:42:10;8.93;;;3.80;;
44248;SDS011;29923;48.718;9.272;2022-07-29T09:44:43;5.53;;;3.70;;
44248;SDS011;29923;48.718;9.272;2022-07-29T09:47:13;5.03;;;3.40;;
44248;SDS011;29923;48.718;9.272;2022-07-29T09:52:18;10.93;;;3.90;;
44248;SDS011;29923;48.718;9.272;2022-07-29T09:54:43;8.40;;;4.45;;
44248;SDS011;29923;48.718;9.272;2022-07-29T09:57:09;9.60;;;3.97;;
44248;SDS011;29923;48.718;9.272;2022-07-29T10:02:33;5.55;;;3.42;;
44248;SDS011;29923;48.718;9.272;2022-07-29T10:05:00;5.80;;;4.22;;
44248;SDS011;29923;48.718;9.272;2022-07-29T10:07:27;8.68;;;4.53;;
44248;SDS011;29923;48.718;9.272;2022-07-29T10:10:08;10.95;;;4.20;;
44248;SDS011;29923;48.718;9.272;2022-07-29T10:12:34;6.72;;;3.70;;
44248;SDS011;29923;48.718;9.272;2022-07-29T10:15:13;5.57;;;3.22;;
44248;SDS011;29923;48.718;9.272;2022-07-29T10:17:40;8.32;;;3.90;;
44248;SDS011;29923;48.718;9.272;2022-07-29T10:20:06;6.90;;;3.55;;
44248;SDS011;29923;48.718;9.272;2022-07-29T10:22:32;8.48;;;3.92;;
44248;SDS011;29923;48.718;9.272;2022-07-29T10:24:58;8.27;;;3.80;;
44248;SDS011;29923;48.718;9.272;2022-07-29T10:27:24;6.35;;;3.38;;
44248;SDS011;29923;48.718;9.272;2022-07-29T10:29:49;4.35;;;3.83;;
44248;SDS011;29923;48.718;9.272;2022-07-29T10:37:36;11.38;;;4.18;;
44248;SDS011;29923;48.718;9.272;2022-07-29T10:42:54;6.85;;;3.70;;
44248;SDS011;29923;48.718;9.272;2022-07-29T10:45:20;6.70;;;3.88;;
44248;SDS011;29923;48.718;9.272;2022-07-29T10:47:46;6.75;;;3.80;;
44248;SDS011;29923;48.718;9.272;2022-07-29T10:50:11;11.07;;;3.70;;
44248;SDS011;29923;48.718;9.272;2022-07-29T10:55:36;6.30;;;3.78;;
44248;SDS011;29923;48.718;9.272;2022-07-29T11:00:48;7.45;;;3.70;;
44248;SDS011;29923;48.718;9.272;2022-07-29T11:06:12;7.70;;;3.78;;
44248;SDS011;29923;48.718;9.272;2022-07-29T11:08:37;10.32;;;4.53;;
44248;SDS011;29923;48.718;9.272;2022-07-29T11:16:12;6.43;;;3.70;;
44248;SDS011;29923;48.718;9.272;2022-07-29T11:21:35;6.18;;;2.88;;
44248;SDS011;29923;48.718;9.272;2022-07-29T11:24:11;16.10;;;3.33;;
44248;SDS011;29923;48.718;9.272;2022-07-29T11:26:40;13.13;;;3.13;;
44248;SDS011;29923;48.718;9.272;2022-07-29T11:31:37;2.78;;;1.35;;
44248;SDS011;29923;48.718;9.272;2022-07-29T11:34:20;3.08;;;1.50;;
